CES5402 ZGDY-RKSI
Flight info
| Callsign | CES5402 |
|---|---|
| Flight time | N/A |
| Altitude | 35100 |
| Route | LIN A581 WHA R343 HFE W163 VEMEX W73 MABOS/K0846S1100 W543 AKSIG/K0841S1130 W543 OF W185 YCH W113 IKADI/K0845S1100 A326 OMLIB/K0833S1130 W209 AGAVO/N0447F370 Y644 REBIT |
| Aircraft | A320/M-SDE2E3FGILRWXY/LB2 |
Departure
| Time | 2026-05-06 08:40 |
|---|---|
| Airport | Zhangjiajie Hehua International Airport (ZGDY) |
Arrival
| Time | N/A |
|---|---|
| Airport | Incheon International Airport (RKSI) |
| Time | Latitude | Longitude | Altitude | Speed | Heading |
|---|---|---|---|---|---|
| 2026-05-06 08:20 | 29.10539 | 110.44474 | 694 ft | 0 kts | 346° |
| 2026-05-06 08:29 | 29.10536 | 110.44475 | 694 ft | 3 kts | 346° |
| 2026-05-06 08:29 | 29.10510 | 110.44480 | 690 ft | 4 kts | 2° |
| 2026-05-06 08:29 | 29.10486 | 110.44473 | 686 ft | 4 kts | 53° |
| 2026-05-06 08:30 | 29.10481 | 110.44464 | 686 ft | 0 kts | 77° |
| 2026-05-06 08:32 | 29.10482 | 110.44468 | 686 ft | 2 kts | 77° |
| 2026-05-06 08:32 | 29.10477 | 110.44504 | 691 ft | 7 kts | 84° |
| 2026-05-06 08:33 | 29.10507 | 110.44575 | 690 ft | 13 kts | 76° |
| 2026-05-06 08:33 | 29.10531 | 110.44684 | 681 ft | 16 kts | 76° |
| 2026-05-06 08:33 | 29.10568 | 110.44814 | 683 ft | 18 kts | 75° |
| 2026-05-06 08:33 | 29.10598 | 110.44953 | 685 ft | 20 kts | 76° |
| 2026-05-06 08:34 | 29.10635 | 110.45116 | 683 ft | 23 kts | 76° |
| 2026-05-06 08:34 | 29.10713 | 110.45465 | 680 ft | 16 kts | 76° |
| 2026-05-06 08:34 | 29.10734 | 110.45570 | 679 ft | 12 kts | 89° |
| 2026-05-06 08:35 | 29.10668 | 110.45622 | 679 ft | 13 kts | 166° |
| 2026-05-06 08:35 | 29.10581 | 110.45625 | 679 ft | 11 kts | 216° |
| 2026-05-06 08:35 | 29.10564 | 110.45569 | 680 ft | 4 kts | 257° |
| 2026-05-06 08:35 | 29.10553 | 110.45516 | 681 ft | 15 kts | 256° |
| 2026-05-06 08:36 | 29.10466 | 110.45131 | 683 ft | 85 kts | 255° |
| 2026-05-06 08:36 | 29.10271 | 110.44259 | 697 ft | 139 kts | 256° |
| 2026-05-06 08:36 | 29.10004 | 110.43055 | 953 ft | 162 kts | 255° |
| 2026-05-06 08:36 | 29.09727 | 110.41799 | 1681 ft | 163 kts | 251° |
| 2026-05-06 08:37 | 29.09443 | 110.40544 | 2349 ft | 163 kts | 255° |
| 2026-05-06 08:37 | 29.09163 | 110.39291 | 2996 ft | 162 kts | 251° |
| 2026-05-06 08:37 | 29.08881 | 110.38044 | 3655 ft | 161 kts | 251° |
| 2026-05-06 08:37 | 29.08598 | 110.36792 | 4115 ft | 168 kts | 251° |
| 2026-05-06 08:38 | 29.08286 | 110.35431 | 4337 ft | 191 kts | 252° |
| 2026-05-06 08:38 | 29.07929 | 110.33875 | 4529 ft | 215 kts | 252° |
| 2026-05-06 08:38 | 29.07530 | 110.32132 | 4874 ft | 236 kts | 253° |
| 2026-05-06 08:38 | 29.07117 | 110.30291 | 5627 ft | 241 kts | 252° |
| 2026-05-06 08:39 | 29.06703 | 110.28425 | 6450 ft | 243 kts | 252° |
| 2026-05-06 08:39 | 29.06339 | 110.26532 | 7245 ft | 246 kts | 263° |
| 2026-05-06 08:39 | 29.06492 | 110.24566 | 7994 ft | 255 kts | 283° |
| 2026-05-06 08:39 | 29.07302 | 110.22732 | 8722 ft | 265 kts | 305° |
| 2026-05-06 08:40 | 29.08716 | 110.21343 | 9465 ft | 274 kts | 328° |
| 2026-05-06 08:40 | 29.10556 | 110.20670 | 10106 ft | 285 kts | 352° |
| 2026-05-06 08:40 | 29.12542 | 110.20930 | 10759 ft | 294 kts | 17° |
| 2026-05-06 08:40 | 29.14296 | 110.22149 | 11365 ft | 301 kts | 45° |
| 2026-05-06 08:41 | 29.15503 | 110.24110 | 12034 ft | 307 kts | 60° |
| 2026-05-06 08:41 | 29.16822 | 110.26130 | 12192 ft | 328 kts | 41° |
| 2026-05-06 08:41 | 29.18544 | 110.27974 | 12315 ft | 350 kts | 50° |
| 2026-05-06 08:41 | 29.19676 | 110.30507 | 12451 ft | 370 kts | 78° |
| 2026-05-06 08:42 | 29.19756 | 110.33480 | 12598 ft | 382 kts | 102° |
| 2026-05-06 08:42 | 29.19036 | 110.36435 | 12993 ft | 388 kts | 112° |
| 2026-05-06 08:42 | 29.18067 | 110.39334 | 13511 ft | 392 kts | 113° |
| 2026-05-06 08:42 | 29.17323 | 110.42358 | 14001 ft | 400 kts | 99° |
| 2026-05-06 08:43 | 29.17297 | 110.45557 | 14468 ft | 405 kts | 88° |
| 2026-05-06 08:43 | 29.17398 | 110.48793 | 14947 ft | 408 kts | 90° |
| 2026-05-06 08:43 | 29.17408 | 110.52059 | 15419 ft | 412 kts | 92° |
| 2026-05-06 08:43 | 29.17373 | 110.55354 | 15905 ft | 415 kts | 92° |
| 2026-05-06 08:44 | 29.17326 | 110.58672 | 16369 ft | 419 kts | 92° |
| 2026-05-06 08:44 | 29.17289 | 110.62020 | 16839 ft | 423 kts | 92° |
| 2026-05-06 08:44 | 29.17272 | 110.65395 | 17307 ft | 427 kts | 91° |
| 2026-05-06 08:44 | 29.17270 | 110.68807 | 17772 ft | 430 kts | 91° |
| 2026-05-06 08:45 | 29.17277 | 110.72246 | 18163 ft | 435 kts | 91° |
| 2026-05-06 08:45 | 29.17285 | 110.74544 | 18428 ft | 437 kts | 91° |
| 2026-05-06 08:45 | 29.17674 | 110.79183 | 18971 ft | 442 kts | 78° |
| 2026-05-06 08:45 | 29.18147 | 110.81453 | 19238 ft | 444 kts | 76° |
| 2026-05-06 08:46 | 29.19137 | 110.86063 | 19783 ft | 448 kts | 77° |
| 2026-05-06 08:46 | 29.19626 | 110.88364 | 20045 ft | 450 kts | 77° |
| 2026-05-06 08:46 | 29.20362 | 110.91855 | 20440 ft | 453 kts | 77° |
| 2026-05-06 08:46 | 29.21099 | 110.95367 | 20819 ft | 455 kts | 77° |
| 2026-05-06 08:47 | 29.21836 | 110.98903 | 21195 ft | 458 kts | 77° |
| 2026-05-06 08:47 | 29.22577 | 111.02458 | 21551 ft | 461 kts | 77° |
| 2026-05-06 08:47 | 29.23324 | 111.06036 | 21887 ft | 464 kts | 77° |
| 2026-05-06 08:47 | 29.24077 | 111.09636 | 22229 ft | 466 kts | 77° |
| 2026-05-06 08:48 | 29.24834 | 111.13251 | 22574 ft | 468 kts | 77° |
| 2026-05-06 08:48 | 29.25595 | 111.16889 | 22917 ft | 471 kts | 77° |
| 2026-05-06 08:48 | 29.26357 | 111.20547 | 23265 ft | 473 kts | 77° |
| 2026-05-06 08:48 | 29.27122 | 111.24222 | 23548 ft | 476 kts | 77° |
| 2026-05-06 08:49 | 29.27891 | 111.27916 | 23823 ft | 478 kts | 77° |
| 2026-05-06 08:49 | 29.28662 | 111.31633 | 24098 ft | 481 kts | 77° |
| 2026-05-06 08:49 | 29.29434 | 111.35367 | 24375 ft | 483 kts | 77° |
| 2026-05-06 08:49 | 29.30209 | 111.39119 | 24647 ft | 485 kts | 77° |
| 2026-05-06 08:50 | 29.30979 | 111.42838 | 24919 ft | 487 kts | 76° |
| 2026-05-06 08:50 | 29.31761 | 111.46628 | 25194 ft | 490 kts | 76° |
| 2026-05-06 08:50 | 29.32543 | 111.50435 | 25474 ft | 492 kts | 76° |
| 2026-05-06 08:50 | 29.33329 | 111.54263 | 25760 ft | 494 kts | 77° |
| 2026-05-06 08:51 | 29.34118 | 111.58106 | 26037 ft | 497 kts | 77° |
| 2026-05-06 08:51 | 29.34963 | 111.61950 | 26305 ft | 499 kts | 72° |
| 2026-05-06 08:51 | 29.36179 | 111.65675 | 26584 ft | 500 kts | 64° |
| 2026-05-06 08:51 | 29.37828 | 111.69187 | 26866 ft | 500 kts | 55° |
| 2026-05-06 08:52 | 29.39725 | 111.72533 | 27137 ft | 502 kts | 54° |
| 2026-05-06 08:52 | 29.41640 | 111.75871 | 27539 ft | 501 kts | 54° |
| 2026-05-06 08:52 | 29.43560 | 111.79203 | 27943 ft | 500 kts | 54° |
| 2026-05-06 08:52 | 29.45477 | 111.82531 | 28357 ft | 500 kts | 54° |
| 2026-05-06 08:53 | 29.47388 | 111.85857 | 28780 ft | 499 kts | 54° |
| 2026-05-06 08:53 | 29.49295 | 111.89185 | 29203 ft | 499 kts | 54° |
| 2026-05-06 08:53 | 29.51196 | 111.92510 | 29640 ft | 498 kts | 54° |
| 2026-05-06 08:53 | 29.53094 | 111.95835 | 30044 ft | 497 kts | 54° |
| 2026-05-06 08:54 | 29.54985 | 111.99158 | 30417 ft | 497 kts | 54° |
| 2026-05-06 08:54 | 29.56871 | 112.02486 | 30786 ft | 496 kts | 54° |
| 2026-05-06 08:54 | 29.58747 | 112.05808 | 31166 ft | 496 kts | 53° |
| 2026-05-06 08:54 | 29.60600 | 112.09086 | 31533 ft | 495 kts | 53° |
| 2026-05-06 08:55 | 29.62501 | 112.12445 | 31937 ft | 495 kts | 53° |
| 2026-05-06 08:55 | 29.64354 | 112.15711 | 32336 ft | 494 kts | 53° |
| 2026-05-06 08:55 | 29.66232 | 112.19014 | 32721 ft | 493 kts | 52° |
| 2026-05-06 08:55 | 29.68107 | 112.22315 | 33128 ft | 492 kts | 52° |
| 2026-05-06 08:56 | 29.69975 | 112.25611 | 33539 ft | 491 kts | 52° |
| 2026-05-06 08:56 | 29.71836 | 112.28903 | 33926 ft | 490 kts | 52° |
| 2026-05-06 08:56 | 29.73689 | 112.32186 | 34264 ft | 489 kts | 52° |
| 2026-05-06 08:56 | 29.75534 | 112.35465 | 34594 ft | 488 kts | 52° |
| 2026-05-06 08:57 | 29.77373 | 112.38744 | 34914 ft | 487 kts | 52° |
| 2026-05-06 08:57 | 29.79206 | 112.42018 | 35221 ft | 486 kts | 52° |
| 2026-05-06 08:57 | 29.81034 | 112.45290 | 35519 ft | 485 kts | 52° |
| 2026-05-06 08:57 | 29.82858 | 112.48555 | 35817 ft | 485 kts | 52° |
| 2026-05-06 08:58 | 29.84679 | 112.51820 | 36101 ft | 484 kts | 52° |
| 2026-05-06 08:58 | 29.86491 | 112.55070 | 36373 ft | 483 kts | 52° |
| 2026-05-06 08:58 | 29.88312 | 112.58336 | 36641 ft | 483 kts | 52° |
| 2026-05-06 08:58 | 29.90131 | 112.61592 | 36829 ft | 483 kts | 52° |
| 2026-05-06 08:59 | 29.91958 | 112.64860 | 36880 ft | 488 kts | 52° |
| 2026-05-06 08:59 | 29.95657 | 112.71490 | 36875 ft | 494 kts | 53° |
| 2026-05-06 09:00 | 29.99362 | 112.78168 | 36877 ft | 494 kts | 53° |
| 2026-05-06 09:00 | 30.03066 | 112.84854 | 36881 ft | 494 kts | 53° |
| 2026-05-06 09:01 | 30.06763 | 112.91547 | 36878 ft | 494 kts | 53° |
| 2026-05-06 09:01 | 30.10461 | 112.98243 | 36882 ft | 494 kts | 53° |
| 2026-05-06 09:02 | 30.14160 | 113.04939 | 36896 ft | 494 kts | 53° |
| 2026-05-06 09:02 | 30.17854 | 113.11636 | 36898 ft | 494 kts | 53° |
| 2026-05-06 09:03 | 30.21541 | 113.18334 | 36908 ft | 494 kts | 53° |
| 2026-05-06 09:03 | 30.25248 | 113.25013 | 36902 ft | 493 kts | 53° |
| 2026-05-06 09:04 | 30.28987 | 113.31653 | 36912 ft | 492 kts | 53° |
| 2026-05-06 09:04 | 30.32703 | 113.38249 | 36910 ft | 492 kts | 53° |
| 2026-05-06 09:05 | 30.36430 | 113.44893 | 36912 ft | 492 kts | 53° |
| 2026-05-06 09:05 | 30.40145 | 113.51548 | 36913 ft | 492 kts | 53° |
| 2026-05-06 09:06 | 30.43844 | 113.58204 | 36917 ft | 491 kts | 54° |
| 2026-05-06 09:06 | 30.47537 | 113.64867 | 36910 ft | 491 kts | 54° |
| 2026-05-06 09:07 | 30.51231 | 113.71506 | 36920 ft | 490 kts | 54° |
| 2026-05-06 09:07 | 30.54915 | 113.78133 | 36921 ft | 489 kts | 54° |
| 2026-05-06 09:08 | 30.58585 | 113.84768 | 36922 ft | 488 kts | 54° |
| 2026-05-06 09:08 | 30.62240 | 113.91394 | 36927 ft | 487 kts | 54° |
| 2026-05-06 09:09 | 30.65887 | 113.98004 | 36919 ft | 486 kts | 54° |
| 2026-05-06 09:09 | 30.69531 | 114.04614 | 36926 ft | 485 kts | 54° |
| 2026-05-06 09:10 | 30.73176 | 114.11221 | 36933 ft | 485 kts | 55° |
| 2026-05-06 09:10 | 30.76813 | 114.17825 | 36934 ft | 485 kts | 55° |
| 2026-05-06 09:11 | 30.79695 | 114.24920 | 36931 ft | 487 kts | 68° |
| 2026-05-06 09:11 | 30.82129 | 114.32273 | 36926 ft | 487 kts | 68° |
| 2026-05-06 09:12 | 30.84532 | 114.39651 | 36919 ft | 488 kts | 69° |
| 2026-05-06 09:12 | 30.86900 | 114.47057 | 36898 ft | 489 kts | 69° |
| 2026-05-06 09:13 | 30.89278 | 114.54479 | 36897 ft | 490 kts | 69° |
| 2026-05-06 09:13 | 30.91697 | 114.61905 | 36898 ft | 491 kts | 68° |
| 2026-05-06 09:14 | 30.94117 | 114.69365 | 36900 ft | 493 kts | 69° |
| 2026-05-06 09:14 | 30.96516 | 114.76807 | 36905 ft | 494 kts | 69° |
| 2026-05-06 09:15 | 30.98930 | 114.84312 | 36911 ft | 495 kts | 68° |
| 2026-05-06 09:15 | 31.01349 | 114.91833 | 36920 ft | 496 kts | 68° |
| 2026-05-06 09:16 | 31.03770 | 114.99361 | 36929 ft | 496 kts | 68° |
| 2026-05-06 09:16 | 31.06194 | 115.06908 | 36939 ft | 497 kts | 68° |
| 2026-05-06 09:17 | 31.08608 | 115.14453 | 36943 ft | 497 kts | 68° |
| 2026-05-06 09:17 | 31.11015 | 115.22019 | 36946 ft | 497 kts | 68° |
| 2026-05-06 09:18 | 31.13407 | 115.29588 | 36944 ft | 497 kts | 68° |
| 2026-05-06 09:18 | 31.15833 | 115.37159 | 36946 ft | 498 kts | 67° |
| 2026-05-06 09:19 | 31.18301 | 115.44722 | 36952 ft | 499 kts | 67° |
| 2026-05-06 09:19 | 31.20771 | 115.52310 | 36957 ft | 500 kts | 67° |
| 2026-05-06 09:20 | 31.23226 | 115.59916 | 36967 ft | 501 kts | 67° |
| 2026-05-06 09:20 | 31.25668 | 115.67538 | 36975 ft | 501 kts | 67° |
| 2026-05-06 09:21 | 31.28091 | 115.75120 | 36972 ft | 501 kts | 67° |
| 2026-05-06 09:21 | 31.30529 | 115.82746 | 36975 ft | 501 kts | 67° |
| 2026-05-06 09:22 | 31.32966 | 115.90388 | 36977 ft | 502 kts | 67° |
| 2026-05-06 09:22 | 31.35441 | 115.98017 | 36980 ft | 501 kts | 66° |
| 2026-05-06 09:23 | 31.37948 | 116.05636 | 36978 ft | 502 kts | 66° |
| 2026-05-06 09:23 | 31.40441 | 116.13252 | 36970 ft | 501 kts | 66° |
| 2026-05-06 09:24 | 31.42910 | 116.20881 | 36970 ft | 501 kts | 67° |
| 2026-05-06 09:24 | 31.45366 | 116.28517 | 36967 ft | 501 kts | 67° |
| 2026-05-06 09:25 | 31.47826 | 116.36143 | 36968 ft | 501 kts | 67° |
| 2026-05-06 09:25 | 31.50284 | 116.43778 | 36968 ft | 500 kts | 67° |
| 2026-05-06 09:26 | 31.52736 | 116.51406 | 36969 ft | 500 kts | 67° |
| 2026-05-06 09:26 | 31.55176 | 116.59026 | 36967 ft | 499 kts | 67° |
| 2026-05-06 09:27 | 31.57613 | 116.66648 | 36970 ft | 499 kts | 67° |
| 2026-05-06 09:27 | 31.60039 | 116.74270 | 36967 ft | 498 kts | 67° |
| 2026-05-06 09:28 | 31.62456 | 116.81883 | 36973 ft | 498 kts | 67° |
| 2026-05-06 09:28 | 31.64873 | 116.89496 | 36976 ft | 497 kts | 67° |
| 2026-05-06 09:29 | 31.67263 | 116.97053 | 36975 ft | 497 kts | 67° |
| 2026-05-06 09:29 | 31.69657 | 117.04656 | 36976 ft | 496 kts | 68° |
| 2026-05-06 09:30 | 31.72013 | 117.12273 | 36984 ft | 496 kts | 68° |
| 2026-05-06 09:30 | 31.74353 | 117.19889 | 36980 ft | 495 kts | 68° |
| 2026-05-06 09:31 | 31.76652 | 117.27511 | 36979 ft | 495 kts | 72° |
| 2026-05-06 09:31 | 31.77636 | 117.35510 | 36984 ft | 497 kts | 88° |
| 2026-05-06 09:32 | 31.77819 | 117.43623 | 36987 ft | 497 kts | 88° |
| 2026-05-06 09:32 | 31.78018 | 117.51734 | 36985 ft | 496 kts | 88° |
| 2026-05-06 09:33 | 31.78213 | 117.59841 | 36988 ft | 496 kts | 88° |
| 2026-05-06 09:33 | 31.78386 | 117.67904 | 36986 ft | 496 kts | 88° |
| 2026-05-06 09:34 | 31.78545 | 117.76015 | 36989 ft | 496 kts | 88° |
| 2026-05-06 09:34 | 31.78693 | 117.84123 | 36994 ft | 496 kts | 88° |
| 2026-05-06 09:35 | 31.78833 | 117.92236 | 36995 ft | 496 kts | 88° |
| 2026-05-06 09:35 | 31.78960 | 118.00349 | 36995 ft | 496 kts | 88° |
| 2026-05-06 09:36 | 31.79075 | 118.08467 | 36991 ft | 496 kts | 88° |
| 2026-05-06 09:36 | 31.79213 | 118.16577 | 36994 ft | 496 kts | 88° |
| 2026-05-06 09:37 | 31.79346 | 118.23313 | 37000 ft | 496 kts | 88° |
| 2026-05-06 09:37 | 31.79738 | 118.28697 | 37000 ft | 493 kts | 77° |
| 2026-05-06 09:37 | 31.80594 | 118.32586 | 37000 ft | 490 kts | 68° |
| 2026-05-06 09:38 | 31.82838 | 118.38725 | 37000 ft | 487 kts | 63° |
| 2026-05-06 09:38 | 31.85641 | 118.45974 | 37005 ft | 487 kts | 63° |
| 2026-05-06 09:39 | 31.88439 | 118.53228 | 37003 ft | 486 kts | 62° |
| 2026-05-06 09:39 | 31.90069 | 118.56625 | 37006 ft | 480 kts | 49° |
| 2026-05-06 09:39 | 31.92287 | 118.59505 | 37003 ft | 472 kts | 36° |
| 2026-05-06 09:39 | 31.94952 | 118.61687 | 36998 ft | 462 kts | 22° |
| 2026-05-06 09:40 | 31.97898 | 118.63089 | 36995 ft | 453 kts | 9° |
| 2026-05-06 09:40 | 32.00966 | 118.63704 | 36992 ft | 444 kts | 358° |
| 2026-05-06 09:40 | 32.07000 | 118.62907 | 36983 ft | 435 kts | 344° |
| 2026-05-06 09:41 | 32.12954 | 118.61570 | 36980 ft | 436 kts | 345° |
| 2026-05-06 09:41 | 32.18933 | 118.60246 | 36987 ft | 438 kts | 345° |
| 2026-05-06 09:42 | 32.24921 | 118.58920 | 36995 ft | 438 kts | 345° |
| 2026-05-06 09:42 | 32.30916 | 118.57593 | 36997 ft | 438 kts | 345° |
| 2026-05-06 09:43 | 32.36916 | 118.56257 | 36998 ft | 439 kts | 345° |
| 2026-05-06 09:43 | 32.42917 | 118.54909 | 37000 ft | 439 kts | 345° |
| 2026-05-06 09:44 | 32.48962 | 118.53781 | 36999 ft | 444 kts | 354° |
| 2026-05-06 09:44 | 32.55143 | 118.54656 | 36998 ft | 453 kts | 8° |
| 2026-05-06 09:45 | 32.61289 | 118.56337 | 36995 ft | 456 kts | 14° |
| 2026-05-06 09:45 | 32.64228 | 118.57796 | 36993 ft | 462 kts | 25° |
| 2026-05-06 09:45 | 32.66918 | 118.59927 | 36992 ft | 468 kts | 36° |
| 2026-05-06 09:46 | 32.69235 | 118.62662 | 36993 ft | 473 kts | 48° |
| 2026-05-06 09:46 | 32.71085 | 118.65910 | 36986 ft | 477 kts | 59° |
| 2026-05-06 09:46 | 32.74272 | 118.72833 | 36980 ft | 478 kts | 58° |
| 2026-05-06 09:47 | 32.77475 | 118.79768 | 36986 ft | 479 kts | 59° |
| 2026-05-06 09:47 | 32.80671 | 118.86717 | 36991 ft | 479 kts | 59° |
| 2026-05-06 09:48 | 32.83858 | 118.93678 | 36990 ft | 480 kts | 59° |
| 2026-05-06 09:48 | 32.87055 | 119.00644 | 36996 ft | 479 kts | 59° |
| 2026-05-06 09:49 | 32.90259 | 119.07542 | 36994 ft | 479 kts | 58° |
| 2026-05-06 09:49 | 32.93485 | 119.14479 | 36994 ft | 479 kts | 59° |
| 2026-05-06 09:50 | 32.96703 | 119.21420 | 36995 ft | 479 kts | 58° |
| 2026-05-06 09:50 | 32.99942 | 119.28355 | 36994 ft | 479 kts | 58° |
| 2026-05-06 09:51 | 33.03187 | 119.35285 | 36994 ft | 479 kts | 58° |
| 2026-05-06 09:51 | 33.06422 | 119.42232 | 36992 ft | 479 kts | 58° |
| 2026-05-06 09:52 | 33.09647 | 119.49196 | 36991 ft | 480 kts | 58° |
| 2026-05-06 09:52 | 33.12879 | 119.56160 | 36994 ft | 480 kts | 58° |
| 2026-05-06 09:53 | 33.16109 | 119.63141 | 36997 ft | 480 kts | 58° |
| 2026-05-06 09:53 | 33.19335 | 119.70126 | 36996 ft | 481 kts | 58° |
| 2026-05-06 09:54 | 33.22555 | 119.77121 | 37001 ft | 481 kts | 58° |
| 2026-05-06 09:54 | 33.25766 | 119.84126 | 37001 ft | 481 kts | 58° |
| 2026-05-06 09:55 | 33.28983 | 119.91133 | 37003 ft | 481 kts | 58° |
| 2026-05-06 09:55 | 33.32200 | 119.98142 | 37003 ft | 481 kts | 58° |
| 2026-05-06 09:56 | 33.35405 | 120.05154 | 37006 ft | 481 kts | 58° |
| 2026-05-06 09:56 | 33.38583 | 120.12129 | 37009 ft | 481 kts | 58° |
| 2026-05-06 09:57 | 33.41713 | 120.19191 | 37011 ft | 483 kts | 63° |
| 2026-05-06 09:57 | 33.43660 | 120.26920 | 37015 ft | 487 kts | 73° |
| 2026-05-06 09:58 | 33.45309 | 120.34777 | 37003 ft | 487 kts | 73° |
| 2026-05-06 09:58 | 33.46964 | 120.42632 | 37020 ft | 487 kts | 73° |
| 2026-05-06 09:59 | 33.48609 | 120.50498 | 37022 ft | 487 kts | 73° |
| 2026-05-06 09:59 | 33.50235 | 120.58375 | 37029 ft | 487 kts | 73° |
| 2026-05-06 10:00 | 33.51848 | 120.66253 | 37031 ft | 487 kts | 73° |
| 2026-05-06 10:00 | 33.53454 | 120.74125 | 37037 ft | 486 kts | 73° |
| 2026-05-06 10:01 | 33.54262 | 120.78064 | 37824 ft | 486 kts | 76° |
| 2026-05-06 10:01 | 33.55065 | 120.81992 | 37830 ft | 485 kts | 75° |
| 2026-05-06 10:01 | 33.56666 | 120.89841 | 37822 ft | 484 kts | 75° |
| 2026-05-06 10:02 | 33.57463 | 120.93763 | 37054 ft | 485 kts | 72° |
| 2026-05-06 10:02 | 33.58261 | 120.97688 | 37066 ft | 485 kts | 72° |
| 2026-05-06 10:02 | 33.59856 | 121.05546 | 37066 ft | 485 kts | 72° |
| 2026-05-06 10:03 | 33.61430 | 121.13353 | 37077 ft | 485 kts | 73° |
| 2026-05-06 10:03 | 33.63003 | 121.21215 | 37082 ft | 485 kts | 73° |
| 2026-05-06 10:04 | 33.64577 | 121.29087 | 37102 ft | 485 kts | 72° |
| 2026-05-06 10:04 | 33.66151 | 121.36954 | 37116 ft | 485 kts | 72° |
| 2026-05-06 10:05 | 33.67720 | 121.44823 | 37127 ft | 485 kts | 72° |